Terminal Aerodrome Forecast
Issued by NWS

Home | Current Version | Previous Version | Graphics & Text | Print | Product List | Glossary On
Versions: 1 2 3 4 5 6 7 8 9 10 11 12 13 14 15
221
FTUS43 KGRB 220520
TAFCWA
TAF
KCWA 220520Z 2206/2306 14005KT 5SM BR SCT250 WS020/20035KT
     FM220900 17004KT 3SM BR SCT150 WS020/24030KT
      TEMPO 2209/2213 1SM BR SCT003
     FM221300 19006KT 5SM BR SCT150
     FM221600 19009KT P6SM FEW250
     FM230400 18005KT P6SM FEW250 WS010/22020KT
      AMD LTD TO CLD VIS AND WIND TIL 221100=

USA.gov is the U.S. government's official web portal to all federal, state and local government web resources and services.